Time;durP1;ratioP1;P1;durP2;ratioP2;P2;SDS_P1;SDS_P2;PMS_P1;PMS_P2;Temp;Humidity;BMP_temperature;BMP_pressure;BME280_temperature;BME280_humidity;BME280_pressure;Samples;Min_cycle;Max_cycle;Signal;HPM_P1;HPM_P2
2023/07/21 02:43:41;;;;;;;8.20;4.50;;;;;;;16.70;83.09;98759.98;106650;1302;544845;-49
2023/07/21 02:46:06;;;;;;;8.80;3.70;;;;;;;16.67;83.33;98759.17;107321;1313;22226;-48
2023/07/21 02:48:34;;;;;;;12.00;4.20;;;;;;;16.66;83.54;98758.23;107330;1313;23013;-45
2023/07/21 02:51:00;;;;;;;;;;;;;;;16.65;83.47;98763.25;107376;1313;22452;-51
2023/07/21 02:53:26;;;;;;;5.70;3.80;;;;;;;16.65;83.46;98765.25;107363;1313;22252;-55
2023/07/21 02:55:52;;;;;;;6.20;4.10;;;;;;;16.65;83.82;98762.37;107372;1312;22324;-45
2023/07/21 02:58:17;;;;;;;7.10;4.50;;;;;;;16.66;84.18;98764.39;107521;1310;132998;-49
2023/07/21 03:00:43;;;;;;;7.20;4.20;;;;;;;16.69;83.26;98766.48;107656;1310;22273;-50
2023/07/21 03:03:14;;;;;;;6.50;4.20;;;;;;;16.70;83.43;98764.73;107662;1310;23228;-46
2023/07/21 03:05:41;;;;;;;7.10;4.20;;;;;;;16.73;83.82;98760.98;107672;1310;22917;-51
2023/07/21 03:08:07;;;;;;;5.80;4.30;;;;;;;16.77;83.82;98761.00;107663;1310;22388;-47
2023/07/21 03:10:33;;;;;;;8.30;4.80;;;;;;;16.79;83.34;98764.86;107663;1291;22287;-45
2023/07/21 03:12:58;;;;;;;5.50;3.90;;;;;;;16.80;82.77;98764.75;107670;1310;22435;-49
2023/07/21 03:15:23;;;;;;;9.60;4.40;;;;;;;16.82;82.71;98762.84;107651;1310;23283;-55
2023/07/21 03:17:49;;;;;;;5.80;4.20;;;;;;;16.84;82.17;98759.86;107647;1310;22225;-46
2023/07/21 03:20:15;;;;;;;4.60;4.10;;;;;;;16.85;82.19;98755.88;107637;1310;22244;-48
2023/07/21 03:22:42;;;;;;;6.10;3.70;;;;;;;16.85;82.71;98759.55;107674;1310;22714;-54
2023/07/21 03:25:09;;;;;;;7.40;3.90;;;;;;;16.88;82.67;98761.75;107643;1295;22234;-50
2023/07/21 03:27:34;;;;;;;9.20;4.40;;;;;;;16.90;82.35;98760.71;107648;1310;22539;-49
2023/07/21 03:30:01;;;;;;;9.90;3.90;;;;;;;16.91;82.22;98759.95;107672;1310;23367;-45
2023/07/21 03:32:27;;;;;;;4.20;3.80;;;;;;;16.93;82.35;98759.82;107664;1310;22227;-47
2023/07/21 03:34:54;;;;;;;9.60;4.40;;;;;;;16.94;81.62;98761.81;107687;1310;22218;-47
2023/07/21 03:37:22;;;;;;;9.00;3.80;;;;;;;16.97;81.53;98761.14;107655;1310;22238;-52
2023/07/21 03:39:47;;;;;;;6.10;4.00;;;;;;;16.99;81.80;98764.89;107645;1310;22220;-49
2023/07/21 03:42:14;;;;;;;8.70;4.00;;;;;;;17.01;81.99;98759.23;107652;1310;22474;-49
2023/07/21 03:44:39;;;;;;;6.90;3.70;;;;;;;17.02;81.84;98760.90;107634;1310;22449;-52
2023/07/21 03:47:05;;;;;;;8.70;4.20;;;;;;;17.02;81.56;98763.21;107629;1310;22233;-52
2023/07/21 03:49:30;;;;;;;7.00;3.90;;;;;;;17.03;81.47;98761.15;107650;1308;22262;-49
2023/07/21 03:51:55;;;;;;;4.60;3.80;;;;;;;17.07;80.90;98762.59;107657;1310;22394;-52
2023/07/21 03:54:20;;;;;;;11.50;3.70;;;;;;;17.09;81.00;98767.73;107617;1310;23066;-46
2023/07/21 03:56:46;;;;;;;6.60;4.00;;;;;;;17.11;81.07;98766.63;107657;1310;22344;-48
2023/07/21 03:59:11;;;;;;;11.90;3.80;;;;;;;17.13;81.29;98768.45;107657;1310;22923;-48
2023/07/21 04:01:37;;;;;;;7.00;3.70;;;;;;;17.16;80.85;98769.01;107650;1310;22202;-43
2023/07/21 04:04:02;;;;;;;4.40;3.50;;;;;;;17.19;80.99;98770.48;107626;1310;22236;-55
2023/07/21 04:06:28;;;;;;;5.50;3.30;;;;;;;17.21;80.62;98775.85;107638;1310;22255;-47
2023/07/21 04:08:53;;;;;;;7.60;3.70;;;;;;;17.22;80.51;98777.27;107660;1310;22427;-49
2023/07/21 04:11:19;;;;;;;5.90;3.70;;;;;;;17.22;80.47;98773.73;107670;1310;22244;-52
2023/07/21 04:13:44;;;;;;;7.60;3.70;;;;;;;17.23;80.69;98771.90;107650;1310;23244;-52
2023/07/21 04:16:11;;;;;;;6.30;3.40;;;;;;;17.25;80.56;98769.57;107636;1310;22307;-47
2023/07/21 04:18:37;;;;;;;5.20;3.50;;;;;;;17.28;80.66;98775.02;107670;1310;22404;-48
2023/07/21 04:21:03;;;;;;;5.60;3.80;;;;;;;17.32;80.16;98776.05;107664;1310;22237;-43
2023/07/21 04:23:28;;;;;;;5.70;3.40;;;;;;;17.36;79.68;98775.05;107650;1310;22226;-49
2023/07/21 04:25:53;;;;;;;7.70;3.40;;;;;;;17.38;79.20;98782.96;107674;1309;22245;-49
2023/07/21 04:28:18;;;;;;;13.60;3.40;;;;;;;17.42;78.82;98783.52;107671;1309;23366;-50
2023/07/21 04:30:44;;;;;;;6.10;3.20;;;;;;;17.46;78.57;98786.48;107691;1309;22263;-49
2023/07/21 04:33:09;;;;;;;5.70;3.60;;;;;;;17.46;78.26;98787.88;107730;1291;22549;-51
2023/07/21 04:35:34;;;;;;;7.20;2.80;;;;;;;17.46;78.31;98785.61;107747;1309;23198;-48
2023/07/21 04:38:01;;;;;;;4.70;3.30;;;;;;;17.46;78.55;98784.69;107765;1308;22821;-50
2023/07/21 04:40:26;;;;;;;4.50;3.30;;;;;;;17.46;79.38;98784.33;107795;1309;23061;-50
2023/07/21 04:42:52;;;;;;;3.90;3.00;;;;;;;17.46;78.76;98785.98;107758;1309;23492;-50
2023/07/21 04:45:17;;;;;;;3.50;2.90;;;;;;;17.45;78.77;98788.14;107793;1309;22527;-53
2023/07/21 04:47:42;;;;;;;5.20;2.80;;;;;;;17.42;78.96;98790.27;107745;1308;22274;-47
2023/07/21 04:50:08;;;;;;;5.20;2.70;;;;;;;17.43;78.73;98790.59;107775;1308;22315;-53
2023/07/21 04:52:36;;;;;;;3.40;2.90;;;;;;;17.45;79.93;98786.37;107771;1309;22210;-47
2023/07/21 04:55:05;;;;;;;5.40;2.60;;;;;;;17.48;79.55;98787.69;107761;1309;22248;-46
2023/07/21 04:57:32;;;;;;;4.20;2.60;;;;;;;17.49;79.09;98793.46;107765;1309;22458;-53
2023/07/21 04:59:58;;;;;;;4.40;2.40;;;;;;;17.51;79.55;98794.00;107777;1309;22232;-44
2023/07/21 05:02:26;;;;;;;4.50;2.50;;;;;;;17.53;79.33;98795.96;107744;1308;23423;-52
2023/07/21 05:04:51;;;;;;;3.50;2.70;;;;;;;17.57;79.06;98794.31;107792;1309;22658;-53
2023/07/21 05:07:17;;;;;;;5.80;2.90;;;;;;;17.62;79.41;98795.77;107766;1309;22431;-47
2023/07/21 05:09:42;;;;;;;8.50;3.30;;;;;;;17.66;78.93;98797.80;107772;1309;22640;-51
2023/07/21 05:12:08;;;;;;;8.00;2.80;;;;;;;17.70;78.58;98803.05;107759;1308;23190;-52
2023/07/21 05:14:33;;;;;;;3.60;2.60;;;;;;;17.73;77.97;98802.43;107739;1309;22233;-50
2023/07/21 05:16:58;;;;;;;3.60;2.70;;;;;;;17.77;78.29;98801.20;107764;1309;23023;-49
2023/07/21 05:19:23;;;;;;;9.30;2.50;;;;;;;17.77;78.01;98802.38;107778;1309;22232;-55
2023/07/21 05:21:49;;;;;;;3.10;2.20;;;;;;;17.77;77.07;98803.33;107784;1309;22095;-47
2023/07/21 05:24:14;;;;;;;5.20;2.60;;;;;;;17.78;76.75;98801.45;107727;1309;23011;-48
2023/07/21 05:26:39;;;;;;;5.20;2.40;;;;;;;17.81;76.93;98803.69;107754;1309;22474;-48
2023/07/21 05:29:05;;;;;;;4.80;2.40;;;;;;;17.86;77.00;98809.97;107734;1309;24524;-45
2023/07/21 05:31:30;;;;;;;3.40;2.30;;;;;;;17.88;77.15;98805.15;107750;1301;22232;-48
2023/07/21 05:33:55;;;;;;;3.50;2.90;;;;;;;17.84;77.18;98809.21;107761;1309;22232;-49
2023/07/21 05:36:21;;;;;;;5.70;2.70;;;;;;;17.86;77.25;98807.14;107721;1309;22437;-51
2023/07/21 05:38:46;;;;;;;3.30;2.60;;;;;;;17.88;76.77;98806.23;107741;1309;22228;-50
2023/07/21 05:41:12;;;;;;;3.10;2.60;;;;;;;17.84;76.74;98805.70;107755;1309;22452;-48
2023/07/21 05:43:37;;;;;;;7.30;2.70;;;;;;;17.78;76.89;98804.61;107513;1309;22523;-45
2023/07/21 05:46:03;;;;;;;4.10;2.10;;;;;;;17.78;76.54;98801.48;107762;1309;22223;-50
2023/07/21 05:48:28;;;;;;;2.80;2.20;;;;;;;17.79;76.03;98803.67;107783;1309;22989;-55
2023/07/21 05:50:53;;;;;;;2.80;2.40;;;;;;;17.78;75.93;98803.54;107721;1309;22237;-49
2023/07/21 05:53:22;;;;;;;3.10;1.70;;;;;;;17.83;75.93;98805.27;107732;1309;22428;-51
2023/07/21 05:55:47;;;;;;;2.10;1.80;;;;;;;17.86;75.07;98802.49;107760;1309;22446;-49
2023/07/21 05:58:13;;;;;;;6.30;1.50;;;;;;;17.90;74.74;98801.75;107744;1309;22519;-47
2023/07/21 06:00:39;;;;;;;1.60;1.50;;;;;;;17.93;73.66;98802.20;107756;1309;23120;-46
2023/07/21 06:03:05;;;;;;;2.70;1.40;;;;;;;17.94;72.81;98800.71;107763;1309;22232;-51
2023/07/21 06:05:32;;;;;;;1.60;1.50;;;;;;;17.97;72.36;98798.44;107765;1309;22224;-48
2023/07/21 06:07:57;;;;;;;5.30;1.90;;;;;;;18.00;71.74;98801.30;107761;1292;22295;-51
2023/07/21 06:10:23;;;;;;;3.60;1.30;;;;;;;18.04;71.05;98796.94;107740;1309;22484;-47
2023/07/21 06:12:48;;;;;;;1.90;1.30;;;;;;;18.09;71.43;98800.39;107748;1309;22263;-50
2023/07/21 06:15:14;;;;;;;1.90;1.30;;;;;;;18.09;70.59;98797.14;107738;1309;22468;-49
2023/07/21 06:17:39;;;;;;;3.20;1.20;;;;;;;18.14;71.63;98793.91;107743;1309;23043;-46
2023/07/21 06:20:06;;;;;;;6.20;1.50;;;;;;;18.18;70.92;98793.47;107291;1309;22231;-48
2023/07/21 06:22:31;;;;;;;1.20;1.10;;;;;;;18.24;70.34;98796.14;107757;1309;22305;-51
2023/07/21 06:24:56;;;;;;;1.20;1.10;;;;;;;18.30;69.53;98794.10;107717;1309;22464;-53
2023/07/21 06:27:22;;;;;;;1.90;1.10;;;;;;;18.36;69.54;98793.15;107766;1309;22617;-48
2023/07/21 06:29:47;;;;;;;1.20;1.00;;;;;;;18.39;69.46;98791.26;107738;1309;24215;-47
2023/07/21 06:32:12;;;;;;;4.00;1.40;;;;;;;18.43;68.47;98791.45;107768;1309;23205;-48
2023/07/21 06:34:37;;;;;;;2.80;1.00;;;;;;;18.48;68.26;98793.12;107746;1309;22281;-51
2023/07/21 06:37:03;;;;;;;2.00;1.20;;;;;;;18.52;66.67;98791.67;107730;1309;22639;-46
2023/07/21 06:39:33;;;;;;;7.70;1.20;;;;;;;18.56;66.44;98793.53;107727;1309;22213;-51
2023/07/21 06:41:59;;;;;;;1.00;1.00;;;;;;;18.62;66.82;98792.83;107401;1309;22231;-47
2023/07/21 06:44:24;;;;;;;2.60;1.00;;;;;;;18.67;66.43;98791.96;107738;1288;22501;-44
2023/07/21 06:46:51;;;;;;;1.10;0.90;;;;;;;18.72;66.49;98791.88;107743;1309;22428;-45
2023/07/21 06:49:16;;;;;;;4.10;0.90;;;;;;;18.77;66.36;98794.92;107747;1308;22232;-50
2023/07/21 06:51:42;;;;;;;4.20;1.00;;;;;;;18.84;66.23;98797.66;107711;1309;22208;-53
2023/07/21 06:54:08;;;;;;;3.00;1.10;;;;;;;18.88;66.18;98793.41;107769;1309;22439;-44
2023/07/21 06:56:34;;;;;;;2.50;1.00;;;;;;;18.90;64.79;98792.79;107732;1309;23035;-48
2023/07/21 06:58:59;;;;;;;2.70;1.40;;;;;;;18.96;64.44;98793.83;107734;1309;23078;-48
2023/07/21 07:01:25;;;;;;;3.90;1.00;;;;;;;19.00;63.06;98795.60;107741;1292;22221;-49
2023/07/21 07:03:50;;;;;;;2.30;1.10;;;;;;;19.05;63.78;98795.77;107733;1309;22460;-47
2023/07/21 07:06:15;;;;;;;4.10;1.00;;;;;;;19.05;62.85;98793.70;107760;1309;22250;-46
2023/07/21 07:08:41;;;;;;;2.10;1.40;;;;;;;19.07;62.95;98794.21;107723;1309;24295;-49
2023/07/21 07:11:06;;;;;;;1.70;1.10;;;;;;;19.13;62.67;98793.21;107522;1309;23261;-46
2023/07/21 07:13:31;;;;;;;4.10;1.40;;;;;;;19.23;61.84;98791.14;107746;1309;23120;-42
2023/07/21 07:15:57;;;;;;;2.90;1.10;;;;;;;19.37;61.85;98786.60;107728;1309;22255;-46
2023/07/21 07:18:22;;;;;;;0.80;0.80;;;;;;;19.48;60.09;98782.44;107734;1309;22511;-46
2023/07/21 07:20:50;;;;;;;2.40;0.80;;;;;;;19.59;60.47;98785.08;107738;1309;22980;-43
2023/07/21 07:23:16;;;;;;;3.70;1.10;;;;;;;19.73;60.79;98786.40;107756;1309;22328;-42
2023/07/21 07:25:49;;;;;;;3.70;1.20;;;;;;;19.83;59.38;98784.69;107725;1305;22781;-43
2023/07/21 07:28:16;;;;;;;2.30;1.00;;;;;;;19.88;59.33;98780.59;107749;1286;22237;-40
2023/07/21 07:30:42;;;;;;;2.20;0.80;;;;;;;19.99;59.34;98782.67;107718;1309;22510;-44
2023/07/21 07:33:07;;;;;;;1.50;0.90;;;;;;;20.10;58.64;98785.79;107769;1289;22233;-42
2023/07/21 07:35:32;;;;;;;0.60;0.60;;;;;;;20.19;57.47;98789.49;107758;1309;22558;-45
2023/07/21 07:37:58;;;;;;;1.40;0.80;;;;;;;20.21;52.87;98796.20;107757;1309;23242;-50
2023/07/21 07:40:24;;;;;;;1.00;0.70;;;;;;;20.24;52.84;98798.98;107756;1309;23018;-47
2023/07/21 07:42:49;;;;;;;2.00;1.00;;;;;;;20.28;54.43;98801.60;107730;1309;22255;-42
2023/07/21 07:45:14;;;;;;;4.30;0.90;;;;;;;20.29;54.16;98807.11;107779;1309;22958;-51
2023/07/21 07:47:40;;;;;;;2.90;0.80;;;;;;;20.27;54.32;98806.16;107747;1308;22243;-49
2023/07/21 07:50:06;;;;;;;2.40;0.70;;;;;;;20.31;53.28;98811.26;107743;1308;22234;-54
2023/07/21 07:52:31;;;;;;;1.20;0.70;;;;;;;20.47;54.44;98808.54;107767;1294;22443;-48
2023/07/21 07:54:57;;;;;;;4.50;0.80;;;;;;;20.65;52.96;98808.97;107736;1292;22240;-48
2023/07/21 07:57:26;;;;;;;3.00;0.70;;;;;;;20.71;52.26;98805.13;107756;1309;22429;-43
2023/07/21 07:59:52;;;;;;;3.10;1.10;;;;;;;20.78;51.88;98808.33;107757;1309;22314;-48
2023/07/21 08:02:17;;;;;;;4.60;1.00;;;;;;;20.86;49.90;98810.19;107758;1292;22181;-42
2023/07/21 08:04:42;;;;;;;1.00;0.80;;;;;;;20.98;51.77;98809.38;107740;1309;22206;-41
2023/07/21 08:07:07;;;;;;;3.10;0.80;;;;;;;21.03;50.19;98813.21;107798;1305;22235;-44
2023/07/21 08:09:33;;;;;;;1.20;0.70;;;;;;;21.09;49.27;98816.48;107813;1308;22247;-53
2023/07/21 08:11:58;;;;;;;1.40;0.70;;;;;;;21.16;49.32;98815.73;107847;1302;22999;-52
2023/07/21 08:14:23;;;;;;;1.40;0.60;;;;;;;21.27;49.76;98805.63;107808;1308;22210;-41
2023/07/21 08:16:49;;;;;;;1.60;0.80;;;;;;;21.38;47.94;98804.56;107843;1308;23242;-51
2023/07/21 08:19:14;;;;;;;3.10;0.70;;;;;;;21.50;48.37;98804.94;107828;1308;22458;-40
2023/07/21 08:21:39;;;;;;;1.00;0.60;;;;;;;21.72;47.53;98807.05;107849;1301;22459;-45
2023/07/21 08:24:05;;;;;;;2.10;0.80;;;;;;;21.82;46.76;98806.48;107859;1308;23043;-43
2023/07/21 08:26:30;;;;;;;0.60;0.60;;;;;;;21.93;47.00;98807.39;107823;1305;22248;-52
2023/07/21 08:28:56;;;;;;;0.80;0.70;;;;;;;21.85;45.64;98805.89;107843;1308;22260;-46
2023/07/21 08:31:21;;;;;;;3.80;0.70;;;;;;;21.75;45.33;98807.38;107777;1308;22367;-50
2023/07/21 08:33:47;;;;;;;0.80;0.70;;;;;;;21.83;46.16;98801.58;107843;1308;22310;-54
2023/07/21 08:36:12;;;;;;;0.90;0.70;;;;;;;21.99;45.73;98799.78;107834;1308;22333;-52
2023/07/21 08:38:37;;;;;;;2.30;1.00;;;;;;;22.19;46.09;98795.80;107831;1308;22216;-44
2023/07/21 08:41:05;;;;;;;3.10;0.70;;;;;;;22.31;44.63;98793.04;107853;1308;22218;-49
2023/07/21 08:43:31;;;;;;;1.20;0.70;;;;;;;22.39;44.99;98790.49;107848;1308;22999;-46
2023/07/21 08:46:03;;;;;;;1.50;0.60;;;;;;;22.52;43.24;98793.40;107841;1308;22475;-48
2023/07/21 08:48:29;;;;;;;1.00;0.90;;;;;;;22.66;42.98;98788.91;107857;1308;22249;-43
2023/07/21 08:50:56;;;;;;;1.00;0.70;;;;;;;22.86;42.34;98789.17;107844;1302;22466;-43
2023/07/21 08:53:24;;;;;;;1.40;0.70;;;;;;;23.00;41.31;98785.95;107876;1308;22253;-51
2023/07/21 08:55:54;;;;;;;2.80;0.70;;;;;;;23.17;41.56;98784.19;107839;1308;22403;-41
2023/07/21 08:58:21;;;;;;;1.40;0.80;;;;;;;23.38;41.71;98785.15;107855;1308;22252;-45
2023/07/21 09:00:47;;;;;;;1.70;0.90;;;;;;;23.54;40.15;98779.85;107877;1308;22383;-49
2023/07/21 09:03:20;;;;;;;2.00;0.80;;;;;;;23.67;39.65;98781.96;107874;1308;22237;-43
2023/07/21 09:05:47;;;;;;;1.20;0.70;;;;;;;23.78;39.33;98779.71;107861;1308;22210;-52
2023/07/21 09:08:27;;;;;;;1.00;0.90;;;;;;;23.85;39.42;98782.65;107822;1302;23134;-47
2023/07/21 09:11:00;;;;;;;2.80;0.70;;;;;;;23.59;38.85;98785.85;107709;1305;23176;-43
2023/07/21 09:13:26;;;;;;;4.70;0.60;;;;;;;23.32;39.21;98786.70;107706;1308;22426;-50
2023/07/21 09:15:59;;;;;;;4.40;0.90;;;;;;;23.39;39.41;98783.36;107788;1301;22209;-48
2023/07/21 09:18:35;;;;;;;0.70;0.70;;;;;;;23.45;39.75;98777.14;107800;1302;22516;-50
2023/07/21 09:21:00;;;;;;;1.10;0.70;;;;;;;23.34;39.25;98774.73;107788;1302;22982;-43
2023/07/21 09:23:29;;;;;;;3.30;0.90;;;;;;;23.29;40.29;98778.48;107796;1286;22411;-52
2023/07/21 09:25:59;;;;;;;1.00;0.60;;;;;;;23.47;40.33;98771.60;107771;1308;22231;-46
2023/07/21 09:28:42;;;;;;;1.50;0.90;;;;;;;23.91;39.49;98772.86;107728;1302;23426;-52
2023/07/21 09:31:08;;;;;;;0.50;0.50;;;;;;;24.45;38.14;98768.10;107823;1308;22430;-43
2023/07/21 09:33:40;;;;;;;1.70;0.90;;;;;;;24.86;36.82;98766.95;107787;1305;22483;-49
2023/07/21 09:36:06;;;;;;;0.60;0.60;;;;;;;24.94;36.39;98764.65;107785;1308;22235;-55
2023/07/21 09:38:34;;;;;;;1.30;0.60;;;;;;;24.73;36.02;98763.70;107748;1302;22670;-55
2023/07/21 09:41:11;;;;;;;1.10;0.70;;;;;;;24.55;36.19;98767.53;107746;1309;22401;-44
2023/07/21 09:43:37;;;;;;;1.00;0.70;;;;;;;24.58;36.12;98766.38;107744;1308;22422;-50
2023/07/21 09:46:06;;;;;;;1.10;0.80;;;;;;;24.92;36.10;98772.85;107811;1308;22737;-53
2023/07/21 09:48:33;;;;;;;1.90;0.70;;;;;;;25.05;35.66;98766.67;107830;1308;22230;-49
2023/07/21 09:51:03;;;;;;;2.70;0.70;;;;;;;25.05;35.39;98763.31;107773;1301;23130;-50
2023/07/21 09:53:49;;;;;;;1.10;0.80;;;;;;;24.96;35.44;98759.04;107713;1309;22256;-51
2023/07/21 09:56:15;;;;;;;3.20;0.90;;;;;;;24.80;34.89;98759.64;107736;1308;22388;-51
2023/07/21 09:58:50;;;;;;;4.30;1.00;;;;;;;25.08;34.57;98759.48;107811;1301;22344;-41
2023/07/21 10:01:17;;;;;;;1.60;0.80;;;;;;;25.81;34.40;98756.67;107853;1308;23176;-44
2023/07/21 10:03:43;;;;;;;;;;;;;;;26.53;33.61;98764.45;107813;1308;23180;-41
2023/07/21 10:06:09;;;;;;;1.70;0.80;;;;;;;26.87;31.12;98767.06;107759;1309;22370;-48
2023/07/21 10:08:36;;;;;;;0.80;0.80;;;;;;;26.85;31.49;98766.47;107761;1309;22298;-51
2023/07/21 10:11:04;;;;;;;1.00;0.80;;;;;;;26.76;31.08;98769.42;107739;1305;22220;-48
2023/07/21 10:13:31;;;;;;;0.70;0.70;;;;;;;26.94;30.15;98767.37;107430;1309;22259;-44
2023/07/21 10:16:00;;;;;;;;;;;;;;;27.11;29.60;98764.05;107728;1308;23179;-46
2023/07/21 10:18:26;;;;;;;4.80;0.70;;;;;;;27.36;30.27;98763.23;107731;1309;23282;-50
2023/07/21 10:20:53;;;;;;;0.70;0.70;;;;;;;27.66;30.06;98762.63;107708;1308;22217;-46
2023/07/21 10:23:38;;;;;;;2.90;0.60;;;;;;;27.72;27.66;98758.42;107739;1301;22219;-49
2023/07/21 10:26:07;;;;;;;1.40;0.80;;;;;;;28.14;27.38;98759.17;107725;1309;22232;-49
2023/07/21 10:28:37;;;;;;;0.70;0.70;;;;;;;28.38;27.23;98759.70;107730;1309;22944;-44
2023/07/21 10:31:20;;;;;;;0.70;0.70;;;;;;;28.52;26.94;98757.09;107722;1308;22309;-55
2023/07/21 10:34:11;;;;;;;0.80;0.60;;;;;;;28.85;25.92;98752.77;107719;1309;23096;-45
2023/07/21 10:36:52;;;;;;;1.00;0.80;;;;;;;29.16;25.53;98753.53;107736;1291;22213;-50
2023/07/21 10:39:26;;;;;;;1.70;0.70;;;;;;;29.23;25.69;98753.11;107722;1308;22390;-51
2023/07/21 10:41:54;;;;;;;5.70;0.70;;;;;;;29.45;26.04;98754.84;107689;1309;22966;-51
2023/07/21 10:44:20;;;;;;;2.10;0.70;;;;;;;29.60;25.44;98752.92;107712;1308;22416;-55
2023/07/21 10:46:47;;;;;;;1.30;0.60;;;;;;;29.48;24.56;98750.64;107851;1308;22382;-45
2023/07/21 10:49:14;;;;;;;0.70;0.60;;;;;;;29.54;24.77;98747.42;107824;1308;22433;-51
2023/07/21 10:51:41;;;;;;;1.40;0.70;;;;;;;29.84;24.14;98746.09;107821;1308;22484;-45
2023/07/21 10:54:08;;;;;;;0.50;0.50;;;;;;;30.34;23.97;98747.20;107809;1301;22283;-52
2023/07/21 10:56:35;;;;;;;1.50;0.60;;;;;;;30.93;24.05;98743.40;107757;1301;22347;-44
2023/07/21 10:59:01;;;;;;;1.80;0.50;;;;;;;31.28;22.79;98742.65;107814;1295;23291;-48
2023/07/21 11:01:27;;;;;;;0.90;0.80;;;;;;;31.64;22.39;98746.92;107721;1309;22392;-44
2023/07/21 11:03:52;;;;;;;1.20;0.60;;;;;;;31.81;21.98;98747.38;107681;1309;22863;-45
2023/07/21 11:06:18;;;;;;;1.90;0.80;;;;;;;31.97;21.30;98743.55;107745;1291;23073;-51
2023/07/21 11:08:44;;;;;;;1.30;0.70;;;;;;;32.30;21.55;98740.30;107757;1308;23046;-48
2023/07/21 11:11:10;;;;;;;3.00;0.70;;;;;;;32.61;20.83;98740.44;107725;1308;22223;-51
2023/07/21 11:13:39;;;;;;;0.90;0.60;;;;;;;32.79;20.57;98738.48;107757;1308;22084;-47
2023/07/21 11:16:04;;;;;;;2.10;0.60;;;;;;;33.05;19.61;98739.19;107733;1302;22389;-50
2023/07/21 11:18:30;;;;;;;0.60;0.60;;;;;;;33.27;19.50;98737.36;107794;1308;22386;-44
2023/07/21 11:20:55;;;;;;;0.90;0.60;;;;;;;33.51;19.06;98737.16;107734;1308;22477;-43
2023/07/21 11:23:24;;;;;;;1.20;0.80;;;;;;;33.23;19.55;98734.55;107781;1308;22258;-49
2023/07/21 11:26:11;;;;;;;1.10;0.60;;;;;;;32.91;19.93;98730.81;107744;1308;23195;-46
2023/07/21 11:28:41;;;;;;;1.80;0.70;;;;;;;33.49;20.47;98728.23;107739;1308;22219;-46
2023/07/21 11:31:14;;;;;;;2.30;0.80;;;;;;;33.78;19.76;98734.07;107717;1309;22367;-45
2023/07/21 11:33:49;;;;;;;4.50;0.70;;;;;;;34.33;19.94;98733.79;107772;1308;22265;-52
2023/07/21 11:36:17;;;;;;;2.20;0.60;;;;;;;34.39;19.11;98733.52;107771;1301;22451;-52
2023/07/21 11:38:57;;;;;;;0.80;0.80;;;;;;;33.80;18.78;98730.76;107615;1309;22917;-45
2023/07/21 11:41:47;;;;;;;1.00;1.00;;;;;;;33.36;19.36;98729.98;107809;1308;23261;-47
2023/07/21 11:44:23;;;;;;;1.40;0.70;;;;;;;33.17;19.95;98726.98;107820;1308;22276;-43
2023/07/21 11:47:12;;;;;;;1.10;0.70;;;;;;;33.47;19.73;98727.23;107786;1308;22393;-42
2023/07/21 11:49:42;;;;;;;2.20;0.80;;;;;;;33.16;19.07;98723.20;107456;1302;22982;-48
2023/07/21 11:52:09;;;;;;;2.30;0.60;;;;;;;32.56;19.76;98713.86;107744;1304;22351;-48
2023/07/21 11:54:43;;;;;;;1.00;0.70;;;;;;;32.27;20.24;98713.13;107688;1309;22225;-42
2023/07/21 11:57:10;;;;;;;2.20;0.80;;;;;;;32.12;20.63;98718.06;107710;1309;22238;-47
2023/07/21 11:59:35;;;;;;;0.60;0.50;;;;;;;32.14;20.87;98717.30;107689;1308;22442;-53
2023/07/21 12:02:09;;;;;;;1.40;0.60;;;;;;;32.15;20.73;98714.98;107778;1298;22233;-46
2023/07/21 12:04:37;;;;;;;0.70;0.60;;;;;;;32.40;20.33;98710.44;107833;1308;22470;-53
2023/07/21 12:07:03;;;;;;;0.90;0.80;;;;;;;32.61;19.97;98710.15;107852;1300;22462;-43
2023/07/21 12:09:28;;;;;;;0.70;0.70;;;;;;;33.10;19.96;98711.70;107715;1308;22959;-45
2023/07/21 12:11:55;;;;;;;1.20;0.80;;;;;;;33.69;19.34;98710.63;107736;1308;22387;-42
2023/07/21 12:14:21;;;;;;;0.80;0.60;;;;;;;33.89;18.53;98706.09;107735;1308;22200;-42
2023/07/21 12:16:46;;;;;;;2.00;0.80;;;;;;;33.93;18.61;98701.48;107723;1301;22378;-47
2023/07/21 12:19:13;;;;;;;3.60;1.20;;;;;;;34.07;18.53;98700.55;107731;1309;22443;-49
2023/07/21 12:21:39;;;;;;;0.70;0.60;;;;;;;34.12;18.40;98696.46;107742;1302;22988;-46
2023/07/21 12:24:05;;;;;;;4.60;1.00;;;;;;;34.48;18.47;98690.37;107748;1309;22200;-45
2023/07/21 12:26:30;;;;;;;1.20;0.80;;;;;;;34.61;18.46;98691.11;107730;1308;22661;-50
2023/07/21 12:28:55;;;;;;;1.60;0.70;;;;;;;34.34;18.15;98683.14;107730;1309;22838;-47
2023/07/21 12:31:21;;;;;;;0.80;0.50;;;;;;;33.78;18.59;98682.77;107720;1308;23070;-48
2023/07/21 12:33:48;;;;;;;0.80;0.70;;;;;;;33.61;19.03;98681.49;107723;1309;22046;-49
2023/07/21 12:36:16;;;;;;;;;;;;;;;33.24;19.20;98679.61;107583;1308;22406;-52
2023/07/21 12:38:42;;;;;;;2.60;0.70;;;;;;;32.78;19.59;98675.16;107782;1308;23196;-47
2023/07/21 12:41:08;;;;;;;5.80;0.80;;;;;;;32.39;19.77;98667.71;107818;1308;22225;-51
2023/07/21 12:43:35;;;;;;;4.50;0.80;;;;;;;32.08;20.31;98665.61;107497;1309;23169;-48
2023/07/21 12:46:00;;;;;;;1.50;0.70;;;;;;;31.89;20.41;98669.41;107762;1308;22230;-45
2023/07/21 12:48:27;;;;;;;0.70;0.70;;;;;;;31.51;20.56;98668.55;107732;1309;22309;-41
2023/07/21 12:50:52;;;;;;;0.90;0.70;;;;;;;31.13;21.01;98671.21;107770;1302;22466;-47
2023/07/21 12:53:18;;;;;;;1.40;0.80;;;;;;;30.68;21.56;98669.83;107768;1308;23148;-45
2023/07/21 12:55:44;;;;;;;1.10;0.70;;;;;;;30.37;22.05;98670.10;107733;1308;22283;-45
2023/07/21 12:58:09;;;;;;;2.20;0.80;;;;;;;30.14;21.96;98673.29;107747;1309;22228;-48
2023/07/21 13:00:35;;;;;;;1.90;0.80;;;;;;;30.07;22.16;98670.21;107765;1308;22223;-54
2023/07/21 13:03:00;;;;;;;3.40;0.70;;;;;;;29.97;22.39;98668.57;107823;1308;22920;-55
2023/07/21 13:05:25;;;;;;;0.80;0.80;;;;;;;29.93;22.39;98669.05;107811;1308;24607;-43
2023/07/21 13:07:51;;;;;;;4.70;1.10;;;;;;;29.82;22.84;98671.10;107786;1301;22388;-49
2023/07/21 13:10:17;;;;;;;3.40;0.60;;;;;;;29.72;23.11;98666.33;107798;1301;22342;-46
2023/07/21 13:12:42;;;;;;;1.90;0.60;;;;;;;29.66;23.02;98661.88;107751;1301;22423;-46
2023/07/21 13:15:08;;;;;;;3.50;0.90;;;;;;;29.63;23.06;98661.58;107798;1302;22421;-47
2023/07/21 13:17:33;;;;;;;2.60;0.60;;;;;;;29.59;23.39;98663.56;107765;1301;22376;-54
2023/07/21 13:19:58;;;;;;;0.60;0.60;;;;;;;29.50;23.21;98668.90;107796;1308;22264;-38
2023/07/21 13:22:24;;;;;;;1.70;0.80;;;;;;;29.21;22.83;98671.01;107744;1301;22532;-52
2023/07/21 13:24:49;;;;;;;0.80;0.80;;;;;;;28.84;23.41;98668.52;107788;1301;22411;-47
2023/07/21 13:27:15;;;;;;;1.00;0.70;;;;;;;28.64;23.71;98661.41;107763;1301;22265;-48
2023/07/21 13:29:40;;;;;;;1.10;0.70;;;;;;;28.63;23.84;98663.25;107732;1302;22266;-53
2023/07/21 13:32:06;;;;;;;0.70;0.50;;;;;;;28.65;24.00;98664.52;107764;1301;22431;-40
2023/07/21 13:34:32;;;;;;;2.80;0.80;;;;;;;28.45;24.23;98666.28;107782;1301;22244;-49
2023/07/21 13:36:57;;;;;;;2.40;0.80;;;;;;;28.20;24.51;98665.05;107794;1301;22367;-49
2023/07/21 13:39:22;;;;;;;4.30;2.20;;;;;;;27.91;24.49;98662.14;107696;1285;22543;-49
2023/07/21 13:41:48;;;;;;;1.20;1.00;;;;;;;27.64;24.64;98662.98;107773;1301;23128;-50
2023/07/21 13:44:14;;;;;;;1.00;0.90;;;;;;;27.38;24.58;98656.95;107817;1308;23173;-55
2023/07/21 13:46:39;;;;;;;1.10;1.00;;;;;;;27.24;25.38;98662.60;107827;1308;22934;-50
2023/07/21 13:49:06;;;;;;;1.00;0.70;;;;;;;27.11;24.82;98667.35;107873;1308;23054;-44
2023/07/21 13:51:31;;;;;;;0.70;0.70;;;;;;;27.01;24.84;98665.94;107818;1308;22239;-40
2023/07/21 13:53:56;;;;;;;5.90;1.00;;;;;;;26.91;24.73;98662.52;107840;1308;22250;-45
2023/07/21 13:56:23;;;;;;;0.90;0.70;;;;;;;26.88;24.68;98656.12;107858;1308;23048;-49
2023/07/21 13:58:50;;;;;;;2.10;0.80;;;;;;;26.91;25.60;98652.10;107892;1308;22238;-48
2023/07/21 14:01:15;;;;;;;0.70;0.70;;;;;;;26.87;26.13;98656.12;107877;1301;22243;-48
2023/07/21 14:03:42;;;;;;;2.50;0.70;;;;;;;26.85;26.32;98652.59;107892;1308;22272;-44
2023/07/21 14:06:07;;;;;;;1.20;0.70;;;;;;;26.92;26.35;98648.86;107876;1308;22232;-48
2023/07/21 14:08:33;;;;;;;4.40;0.80;;;;;;;26.90;25.90;98636.34;107882;1308;22246;-55